createdAt,value
2022-09-25T00:02:41.098Z,79
2022-09-25T00:06:06.536Z,79
2022-09-25T00:09:31.979Z,78
2022-09-25T00:12:57.445Z,80
2022-09-25T00:16:22.946Z,81
2022-09-25T00:19:48.417Z,81
2022-09-25T00:23:13.970Z,81
2022-09-25T00:26:39.432Z,81
2022-09-25T00:30:04.899Z,80
2022-09-25T00:33:30.316Z,82
2022-09-25T00:36:55.754Z,81
2022-09-25T00:40:21.236Z,83
2022-09-25T00:43:46.651Z,83
2022-09-25T00:47:12.119Z,83
2022-09-25T00:50:37.561Z,83
2022-09-25T00:54:03.081Z,83
2022-09-25T00:57:28.463Z,83
2022-09-25T01:00:53.940Z,83
2022-09-25T01:04:19.407Z,83
2022-09-25T01:07:44.851Z,83
2022-09-25T01:11:10.293Z,83
2022-09-25T01:14:35.712Z,83
2022-09-25T01:18:01.191Z,83
2022-09-25T01:21:26.738Z,83
2022-09-25T01:24:57.245Z,83
2022-09-25T01:28:22.770Z,83
2022-09-25T01:31:48.196Z,83
2022-09-25T01:35:13.694Z,83
2022-09-25T01:38:39.211Z,84
2022-09-25T01:42:04.650Z,83
2022-09-25T01:45:30.092Z,84
2022-09-25T01:48:55.565Z,83
2022-09-25T01:52:21.049Z,83
2022-09-25T01:55:46.489Z,83
2022-09-25T01:59:11.949Z,84
2022-09-25T02:02:37.524Z,82
2022-09-25T02:06:02.888Z,82
2022-09-25T02:09:28.354Z,83
2022-09-25T02:12:53.848Z,82
2022-09-25T02:16:19.340Z,83
2022-09-25T02:19:45.281Z,82
2022-09-25T02:23:10.734Z,82
2022-09-25T02:26:36.173Z,83
2022-09-25T02:30:01.657Z,84
2022-09-25T02:33:27.061Z,84
2022-09-25T02:36:52.541Z,84
2022-09-25T02:40:18.006Z,84
2022-09-25T02:43:43.381Z,84
2022-09-25T02:47:08.954Z,84
2022-09-25T02:50:34.328Z,84
2022-09-25T02:53:59.832Z,84
2022-09-25T02:57:25.298Z,83
2022-09-25T03:00:50.802Z,83
2022-09-25T03:04:16.167Z,84
2022-09-25T03:07:41.641Z,83
2022-09-25T03:11:07.077Z,83
2022-09-25T03:14:32.517Z,83
2022-09-25T03:17:57.987Z,84
2022-09-25T03:21:23.484Z,83
2022-09-25T03:24:48.878Z,83
2022-09-25T03:28:14.342Z,84
2022-09-25T03:31:39.783Z,84
2022-09-25T03:35:05.217Z,83
2022-09-25T03:38:30.665Z,84
2022-09-25T03:41:56.110Z,84
2022-09-25T03:45:19.985Z,84
2022-09-25T03:48:45.456Z,84
2022-09-25T03:52:10.926Z,84
2022-09-25T03:55:36.324Z,85
2022-09-25T03:59:01.731Z,85
2022-09-25T04:02:27.230Z,86
2022-09-25T04:05:52.604Z,84
2022-09-25T04:09:18.023Z,85
2022-09-25T04:12:43.516Z,86
2022-09-25T04:16:09.012Z,86
2022-09-25T04:19:34.487Z,86
2022-09-25T04:22:59.860Z,85
2022-09-25T04:26:25.408Z,85
2022-09-25T04:29:50.989Z,86
2022-09-25T04:33:16.305Z,86
2022-09-25T04:36:41.830Z,86
2022-09-25T04:40:07.254Z,85
2022-09-25T04:43:32.730Z,85
2022-09-25T04:46:58.272Z,85
2022-09-25T04:50:23.650Z,86
2022-09-25T04:53:49.163Z,86
2022-09-25T04:57:23.430Z,86
2022-09-25T05:00:40.588Z,86
2022-09-25T05:04:08.578Z,86
2022-09-25T05:07:31.457Z,86
2022-09-25T05:10:56.895Z,85
2022-09-25T05:14:22.331Z,85
2022-09-25T05:17:47.815Z,86
2022-09-25T05:21:13.326Z,85
2022-09-25T05:24:38.770Z,86
2022-09-25T05:28:04.304Z,85
2022-09-25T05:31:29.760Z,85
2022-09-25T05:34:55.231Z,85
2022-09-25T05:38:20.658Z,85
2022-09-25T05:41:46.048Z,86
2022-09-25T05:45:11.547Z,85
2022-09-25T05:48:37.945Z,85
2022-09-25T05:52:03.352Z,86
2022-09-25T05:55:28.772Z,86
2022-09-25T05:58:54.261Z,86
2022-09-25T06:02:19.729Z,87
2022-09-25T06:05:45.083Z,87
2022-09-25T06:09:10.485Z,87
2022-09-25T06:12:36.006Z,87
2022-09-25T06:16:01.450Z,86
2022-09-25T06:19:26.760Z,87
2022-09-25T06:22:52.165Z,87
2022-09-25T06:26:17.585Z,87
2022-09-25T06:29:43.021Z,87
2022-09-25T06:33:08.414Z,87
2022-09-25T06:36:33.819Z,86
2022-09-25T06:39:59.225Z,85
2022-09-25T06:43:24.647Z,84
2022-09-25T06:46:50.218Z,83
2022-09-25T06:50:15.491Z,82
2022-09-25T06:53:40.936Z,81
2022-09-25T06:57:06.328Z,82
2022-09-25T07:00:31.735Z,82
2022-09-25T07:03:57.179Z,81
2022-09-25T07:07:22.587Z,80
2022-09-25T07:10:48.001Z,80
2022-09-25T07:14:13.411Z,80
2022-09-25T07:17:38.845Z,80
2022-09-25T07:21:04.293Z,79
2022-09-25T07:24:29.697Z,79
2022-09-25T07:27:55.114Z,80
2022-09-25T07:31:20.605Z,80
2022-09-25T07:34:45.951Z,80
2022-09-25T07:38:11.471Z,80
2022-09-25T07:41:36.724Z,80
2022-09-25T07:45:02.195Z,79
2022-09-25T07:48:27.601Z,80
2022-09-25T07:51:52.997Z,79
2022-09-25T07:55:18.470Z,79
2022-09-25T07:58:43.878Z,76
2022-09-25T08:02:09.354Z,79
2022-09-25T08:05:34.755Z,78
2022-09-25T08:09:00.158Z,78
2022-09-25T08:12:25.675Z,78
2022-09-25T08:15:51.061Z,78
2022-09-25T08:19:16.393Z,78
2022-09-25T08:22:41.817Z,77
2022-09-25T08:26:07.206Z,78
2022-09-25T08:29:32.655Z,78
2022-09-25T08:32:58.044Z,78
2022-09-25T08:36:23.460Z,79
2022-09-25T08:39:48.884Z,76
2022-09-25T08:43:14.274Z,76
2022-09-25T08:46:39.814Z,78
2022-09-25T08:50:05.105Z,76
2022-09-25T08:53:30.557Z,75
2022-09-25T08:56:55.965Z,76
2022-09-25T09:00:21.423Z,77
2022-09-25T09:03:46.889Z,76
2022-09-25T09:07:27.779Z,77
2022-09-25T09:10:37.612Z,77
2022-09-25T09:14:03.032Z,76
2022-09-25T09:17:28.446Z,79
2022-09-25T09:20:53.970Z,80
2022-09-25T09:24:19.297Z,80
2022-09-25T09:27:44.717Z,80
2022-09-25T09:31:10.193Z,81
2022-09-25T09:34:54.003Z,81
2022-09-25T09:38:00.919Z,79
2022-09-25T09:41:26.381Z,81
2022-09-25T09:44:51.764Z,81
2022-09-25T09:48:17.183Z,80
2022-09-25T09:51:42.602Z,79
2022-09-25T09:55:08.005Z,78
2022-09-25T09:58:33.388Z,78
2022-09-25T10:01:58.925Z,78
2022-09-25T10:05:24.196Z,77
2022-09-25T10:08:49.639Z,77
2022-09-25T10:12:15.064Z,76
2022-09-25T10:15:40.421Z,75
2022-09-25T10:19:05.825Z,75
2022-09-25T10:22:31.228Z,76
2022-09-25T10:25:56.658Z,74
2022-09-25T10:29:22.092Z,73
2022-09-25T10:32:47.513Z,74
2022-09-25T10:36:12.944Z,73
2022-09-25T10:39:44.494Z,73
2022-09-25T10:43:04.360Z,74
2022-09-25T10:46:29.908Z,73
2022-09-25T10:49:55.277Z,71
2022-09-25T10:53:20.730Z,69
2022-09-25T10:56:46.131Z,71
2022-09-25T11:00:11.717Z,72
2022-09-25T11:03:38.165Z,70
2022-09-25T11:07:03.522Z,71
2022-09-25T11:10:28.952Z,71
2022-09-25T11:13:54.425Z,70
2022-09-25T11:17:19.882Z,71
2022-09-25T11:20:45.377Z,71
2022-09-25T11:24:10.799Z,71
2022-09-25T11:27:36.214Z,71
2022-09-25T11:31:01.665Z,72
2022-09-25T11:34:27.111Z,71
2022-09-25T11:37:52.650Z,71
2022-09-25T11:41:17.960Z,72
2022-09-25T11:44:43.389Z,73
2022-09-25T11:48:08.830Z,73
2022-09-25T11:51:34.299Z,74
2022-09-25T11:54:59.758Z,72
2022-09-25T11:58:25.221Z,72
2022-09-25T12:01:50.758Z,71
2022-09-25T12:05:16.257Z,73
2022-09-25T12:08:41.633Z,71
2022-09-25T12:12:07.115Z,72
2022-09-25T12:15:32.648Z,70
2022-09-25T12:18:58.094Z,71
2022-09-25T12:22:23.641Z,70
2022-09-25T12:25:49.149Z,69
2022-09-25T12:29:14.574Z,71
2022-09-25T12:32:39.993Z,72
2022-09-25T12:36:05.494Z,76
2022-09-25T12:39:30.987Z,77
2022-09-25T12:42:56.449Z,75
2022-09-25T12:46:22.011Z,76
2022-09-25T12:49:47.402Z,78
2022-09-25T12:53:12.832Z,78
2022-09-25T12:56:38.305Z,79
2022-09-25T13:00:03.812Z,80
2022-09-25T13:03:29.258Z,80
2022-09-25T13:06:54.712Z,82
2022-09-25T13:10:20.237Z,82
2022-09-25T13:13:45.610Z,81
2022-09-25T13:17:11.064Z,80
2022-09-25T13:20:36.582Z,79
2022-09-25T13:24:01.972Z,80
2022-09-25T13:27:27.375Z,80
2022-09-25T13:30:52.858Z,82
2022-09-25T13:34:18.249Z,82
2022-09-25T13:37:43.713Z,83
2022-09-25T13:41:09.067Z,83
2022-09-25T13:44:34.521Z,86
2022-09-25T13:48:04.621Z,86
2022-09-25T13:51:25.458Z,85
2022-09-25T13:54:50.918Z,86
2022-09-25T13:58:16.308Z,86
2022-09-25T14:01:41.853Z,86
2022-09-25T14:05:07.163Z,87
2022-09-25T14:08:32.581Z,88
2022-09-25T14:11:58.008Z,88
2022-09-25T14:15:23.386Z,88
2022-09-25T14:18:52.726Z,87
2022-09-25T14:22:14.284Z,88
2022-09-25T14:25:39.734Z,90
2022-09-25T14:29:05.259Z,90
2022-09-25T15:05:59.537Z,89
2022-09-25T15:09:24.941Z,89
2022-09-25T15:12:50.292Z,89
2022-09-25T15:16:15.662Z,89
2022-09-25T15:19:40.935Z,89
2022-09-25T15:23:06.421Z,89
2022-09-25T15:26:31.669Z,89
2022-09-25T15:29:57.010Z,89
2022-09-25T15:33:22.366Z,88
2022-09-25T15:36:47.679Z,87
2022-09-25T15:40:13.144Z,87
2022-09-25T15:43:38.388Z,88
2022-09-25T15:47:03.709Z,88
2022-09-25T15:50:29.040Z,87
2022-09-25T15:53:54.351Z,88
2022-09-25T15:57:19.729Z,88
2022-09-25T16:00:45.009Z,88
2022-09-25T16:04:10.380Z,88
2022-09-25T16:07:35.733Z,89
2022-09-25T16:11:01.053Z,88
2022-09-25T16:14:26.373Z,88
2022-09-25T16:17:51.726Z,88
2022-09-25T16:21:17.039Z,88
2022-09-25T16:24:42.409Z,88
2022-09-25T16:28:07.747Z,89
2022-09-25T16:31:33.250Z,87
2022-09-25T16:34:58.419Z,87
2022-09-25T16:38:23.754Z,87
2022-09-25T16:41:49.145Z,88
2022-09-25T16:45:14.442Z,88
2022-09-25T16:48:39.768Z,88
2022-09-25T16:52:05.100Z,89
2022-09-25T16:55:30.540Z,89
2022-09-25T16:58:55.859Z,89
2022-09-25T17:02:21.355Z,88
2022-09-25T17:05:46.739Z,88
2022-09-25T17:09:12.255Z,89
2022-09-25T17:12:39.065Z,88
2022-09-25T17:16:04.547Z,88
2022-09-25T17:19:30.016Z,88
2022-09-25T17:22:57.656Z,89
2022-09-25T17:26:22.789Z,89
2022-09-25T17:29:48.255Z,89
2022-09-25T17:33:15.526Z,90
2022-09-25T17:36:43.950Z,90
2022-09-25T17:40:09.491Z,90
2022-09-25T17:43:34.820Z,90
2022-09-25T17:47:00.334Z,90
2022-09-25T17:50:25.981Z,90
2022-09-25T17:53:52.294Z,90
2022-09-25T17:57:17.726Z,90
2022-09-25T18:00:43.212Z,90
2022-09-25T18:04:08.646Z,90
2022-09-25T18:07:34.116Z,90
2022-09-25T18:10:59.487Z,90
2022-09-25T18:14:25.068Z,90
2022-09-25T18:17:50.509Z,90
2022-09-25T18:21:15.991Z,90
2022-09-25T18:24:41.614Z,90
2022-09-25T18:28:07.114Z,89
2022-09-25T18:31:32.651Z,89
2022-09-25T18:34:57.991Z,89
2022-09-25T18:38:23.552Z,90
2022-09-25T18:41:49.021Z,90
2022-09-25T18:45:14.458Z,90
2022-09-25T18:48:40.041Z,90
2022-09-25T18:52:05.383Z,90
2022-09-25T18:55:30.819Z,90
2022-09-25T18:58:56.206Z,90
2022-09-25T19:02:21.800Z,90
2022-09-25T19:05:47.132Z,89
2022-09-25T19:09:16.586Z,89
2022-09-25T19:12:38.078Z,89
2022-09-25T19:16:03.515Z,89
2022-09-25T19:19:28.988Z,88
2022-09-25T19:22:54.465Z,87
2022-09-25T19:26:19.919Z,87
2022-09-25T19:29:45.366Z,87
2022-09-25T19:33:10.776Z,87
2022-09-25T19:36:36.269Z,88
2022-09-25T19:40:01.685Z,88
2022-09-25T19:43:27.059Z,88
2022-09-25T19:46:52.594Z,88
2022-09-25T19:50:18.199Z,88
2022-09-25T19:53:43.666Z,89
2022-09-25T19:57:09.129Z,89
2022-09-25T20:00:34.531Z,89
2022-09-25T20:03:59.961Z,89
2022-09-25T20:07:25.445Z,89
2022-09-25T20:10:50.855Z,89
2022-09-25T20:14:16.387Z,90
2022-09-25T20:17:41.709Z,90
2022-09-25T20:21:07.149Z,90
2022-09-25T20:24:32.537Z,90
2022-09-25T20:27:57.949Z,90
2022-09-25T20:31:23.467Z,90
2022-09-25T20:34:48.826Z,90
2022-09-25T20:38:14.224Z,90
2022-09-25T20:41:39.663Z,90
2022-09-25T20:45:05.057Z,90
2022-09-25T20:48:30.560Z,90
2022-09-25T20:51:55.984Z,90
2022-09-25T20:55:21.408Z,90
2022-09-25T20:58:50.779Z,90
2022-09-25T21:02:12.262Z,90
2022-09-25T21:05:37.679Z,90
2022-09-25T21:09:03.119Z,90
2022-09-25T21:12:28.524Z,90
2022-09-25T21:15:53.967Z,90
2022-09-25T21:19:19.377Z,90
2022-09-25T21:22:44.784Z,90
2022-09-25T21:26:10.141Z,90
2022-09-25T21:29:35.557Z,91
2022-09-25T21:33:00.948Z,90
2022-09-25T21:36:26.466Z,90
2022-09-25T21:39:51.922Z,90
2022-09-25T21:43:17.431Z,90
2022-09-25T21:46:43.013Z,90
2022-09-25T21:50:08.411Z,90
2022-09-25T21:53:33.886Z,90
2022-09-25T21:56:59.305Z,90
2022-09-25T22:00:24.694Z,90
2022-09-25T22:03:50.110Z,90
2022-09-25T22:07:15.532Z,90
2022-09-25T22:10:40.955Z,91
2022-09-25T22:14:06.480Z,90
2022-09-25T22:17:31.757Z,90
2022-09-25T22:20:57.206Z,90
2022-09-25T22:24:22.620Z,90
2022-09-25T22:27:48.025Z,90
2022-09-25T22:31:13.743Z,91
2022-09-25T22:34:39.045Z,90
2022-09-25T22:38:04.543Z,90
2022-09-25T22:41:30.046Z,91
2022-09-25T22:44:55.435Z,90
2022-09-25T22:48:20.943Z,90
2022-09-25T22:51:46.344Z,90
2022-09-25T22:55:11.740Z,90
2022-09-25T22:58:37.153Z,90
2022-09-25T23:02:02.585Z,90
2022-09-25T23:05:28.140Z,90
2022-09-25T23:08:53.457Z,90
2022-09-25T23:12:18.933Z,90
2022-09-25T23:15:44.330Z,90
2022-09-25T23:19:09.765Z,90
2022-09-25T23:22:35.257Z,90
2022-09-25T23:26:00.528Z,90
2022-09-25T23:29:25.906Z,90
2022-09-25T23:32:51.357Z,90
2022-09-25T23:36:16.741Z,90
2022-09-25T23:39:42.231Z,91
2022-09-25T23:43:07.625Z,91
2022-09-25T23:46:32.999Z,91
2022-09-25T23:50:02.131Z,91
2022-09-25T23:53:23.805Z,91
2022-09-25T23:56:49.268Z,91
